Terminal Aerodrome Forecast
Issued by NWS Sterling, VA

Home | Current Version | Previous Version | Text Only | Print | Product List | Glossary On
Versions: 1 2 3 4 5 6 7 8 9 10 11 12 13 14 15 16 17 18 19 20 21 22 23 24 25
000
FTUS41 KLWX 300848 AAA
TAFBWI
TAF AMD
KBWI 300848Z 3009/0112 06006KT P6SM OVC008
     FM301400 07005KT P6SM BKN015
     FM301700 10006KT P6SM BKN025
     FM302100 12006KT P6SM BKN040
     FM010000 12007KT P6SM OVC025
     FM010400 12008KT 5SM -RA BR OVC010
     FM010600 12008KT 3SM RA BR OVC015=

USA.gov is the U.S. government's official web portal to all federal, state and local government web resources and services.